Time;durP1;ratioP1;P1;durP2;ratioP2;P2;SDS_P1;SDS_P2;PMS_P1;PMS_P2;Temp;Humidity;BMP_temperature;BMP_pressure;BME280_temperature;BME280_humidity;BME280_pressure;Samples;Min_cycle;Max_cycle;Signal;HPM_P1;HPM_P2
2022/11/07 04:02:50;;;;;;;;;;;11.30;99.90;;;;;;5093781;23;19930;-67
2022/11/07 04:05:17;;;;;;;;;;;11.40;99.90;;;;;;4987356;28;19977;-68
2022/11/07 04:07:44;;;;;;;;;;;11.50;99.90;;;;;;4985665;28;20028;-67
2022/11/07 04:10:10;;;;;;;;;;;11.50;99.90;;;;;;4983546;28;19926;-68
2022/11/07 04:18:07;;;;;;;;;;;11.30;99.90;;;;;;4982318;28;20009;-64
2022/11/07 04:20:34;;;;;;;;;;;11.30;99.90;;;;;;4989602;28;20448;-67
2022/11/07 04:23:01;;;;;;;;;;;11.40;99.90;;;;;;4986643;28;19929;-67
2022/11/07 04:28:14;;;;;;;;;;;11.30;99.90;;;;;;5000393;28;19922;-67
2022/11/07 04:30:41;;;;;;;;;;;11.30;99.90;;;;;;4983657;28;19933;-68
2022/11/07 04:33:09;;;;;;;;;;;11.40;99.90;;;;;;4981937;28;19967;-68
2022/11/07 04:35:36;;;;;;;;;;;11.50;99.90;;;;;;4981077;28;19930;-67
2022/11/07 04:38:03;;;;;;;;;;;11.40;99.90;;;;;;4982902;28;20455;-67
2022/11/07 04:40:30;;;;;;;;;;;11.40;99.90;;;;;;4996409;28;20363;-67
2022/11/07 04:42:57;;;;;;;;;;;11.40;99.90;;;;;;4993611;28;19937;-68
2022/11/07 04:45:24;;;;;;;;;;;11.40;99.90;;;;;;4987374;28;20389;-67
2022/11/07 04:47:51;;;;;;;;;;;11.50;99.90;;;;;;4983687;28;19930;-65
2022/11/07 04:50:19;;;;;;;;;;;11.50;99.90;;;;;;4974545;28;20455;-68
2022/11/07 04:52:46;;;;;;;;;;;11.50;99.90;;;;;;4988410;28;19959;-67
2022/11/07 04:55:17;;;;;;;;;;;11.50;99.90;;;;;;4986159;28;19926;-67
2022/11/07 04:57:44;;;;;;;;;;;11.50;99.90;;;;;;4977799;28;19929;-68
2022/11/07 05:00:11;;;;;;;;;;;11.50;99.90;;;;;;4988934;28;19973;-67
2022/11/07 05:02:38;;;;;;;;;;;11.60;99.90;;;;;;4984909;28;19926;-68
2022/11/07 05:05:05;;;;;;;;;;;11.50;99.90;;;;;;4982793;28;20416;-67
2022/11/07 05:07:33;;;;;;;;;;;11.50;99.90;;;;;;4982548;28;19973;-69
2022/11/07 05:10:00;;;;;;;;;;;11.50;99.90;;;;;;4988764;28;19981;-68
2022/11/07 05:12:27;;;;;;;;;;;11.60;99.90;;;;;;4989488;28;19961;-68
2022/11/07 05:14:53;;;;;;;;;;;11.60;99.90;;;;;;4986360;28;19930;-68
2022/11/07 05:17:20;;;;;;;;;;;11.60;99.90;;;;;;4990012;28;19929;-68
2022/11/07 05:19:47;;;;;;;;;;;11.60;99.90;;;;;;4983623;28;19942;-67
2022/11/07 05:24:59;;;;;;;;;;;11.50;99.90;;;;;;5008516;28;19948;-68
2022/11/07 05:27:26;;;;;;;;;;;11.50;99.90;;;;;;4989093;28;19977;-68
2022/11/07 05:29:53;;;;;;;;;;;11.60;99.90;;;;;;4979474;28;19989;-68
2022/11/07 05:32:20;;;;;;;;;;;11.70;99.90;;;;;;4985897;28;19933;-67
2022/11/07 05:34:46;;;;;;;;;;;11.70;99.90;;;;;;4989705;28;19937;-68
2022/11/07 05:37:13;;;;;;;;;;;11.70;99.90;;;;;;4986223;28;19926;-68
2022/11/07 05:39:40;;;;;;;;;;;11.70;99.90;;;;;;4976569;28;19929;-68
2022/11/07 05:42:08;;;;;;;;;;;11.70;99.90;;;;;;4985741;28;19930;-68
2022/11/07 05:44:35;;;;;;;;;;;11.80;99.90;;;;;;4983650;28;19930;-68
2022/11/07 05:47:02;;;;;;;;;;;11.70;99.90;;;;;;4980541;28;19934;-68
2022/11/07 05:49:29;;;;;;;;;;;11.80;99.90;;;;;;4984583;28;19933;-68
2022/11/07 05:51:56;;;;;;;;;;;11.80;99.90;;;;;;4979467;28;19972;-68
2022/11/07 05:54:23;;;;;;;;;;;11.80;99.90;;;;;;4987576;28;19930;-69
2022/11/07 05:56:50;;;;;;;;;;;11.90;99.90;;;;;;4987164;28;19925;-68
2022/11/07 05:59:18;;;;;;;;;;;11.80;99.90;;;;;;4984028;28;19927;-67
2022/11/07 06:01:45;;;;;;;;;;;11.80;99.90;;;;;;4983510;28;19933;-67
2022/11/07 06:04:12;;;;;;;;;;;11.80;99.90;;;;;;4980127;28;19925;-68
2022/11/07 06:06:39;;;;;;;;;;;11.80;99.90;;;;;;5002259;28;19926;-70
2022/11/07 06:09:06;;;;;;;;;;;11.70;99.90;;;;;;4987312;28;19934;-68
2022/11/07 06:11:32;;;;;;;;;;;11.80;99.90;;;;;;4990410;28;19933;-69
2022/11/07 06:13:59;;;;;;;;;;;11.90;99.90;;;;;;4999489;28;19934;-68
2022/11/07 06:16:28;;;;;;;;;;;11.90;99.90;;;;;;4982324;28;20405;-68
2022/11/07 06:18:54;;;;;;;;;;;11.90;99.90;;;;;;4979477;28;19945;-69
2022/11/07 06:21:21;;;;;;;;;;;12.00;99.90;;;;;;4982239;28;19929;-68
2022/11/07 06:23:48;;;;;;;;;;;12.00;99.90;;;;;;4980143;28;19929;-68
2022/11/07 06:26:15;;;;;;;;;;;12.00;99.90;;;;;;4982822;28;19925;-67
2022/11/07 06:28:42;;;;;;;;;;;12.10;99.90;;;;;;4994840;28;19929;-68
2022/11/07 06:31:09;;;;;;;;;;;12.20;99.90;;;;;;4976456;28;20476;-67
2022/11/07 06:33:38;;;;;;;;;;;12.20;99.90;;;;;;4984576;28;19933;-66
2022/11/07 06:36:06;;;;;;;;;;;12.20;99.90;;;;;;4986273;28;19926;-69
2022/11/07 06:38:33;;;;;;;;;;;12.30;99.90;;;;;;4982767;28;20455;-69
2022/11/07 06:41:03;;;;;;;;;;;12.30;99.90;;;;;;4982506;28;19926;-67
2022/11/07 06:43:30;;;;;;;;;;;12.40;99.90;;;;;;4983609;28;19930;-69
2022/11/07 06:45:57;;;;;;;;;;;12.40;99.90;;;;;;4979633;28;19981;-69
2022/11/07 06:48:24;;;;;;;;;;;12.50;99.90;;;;;;4978614;28;19926;-68
2022/11/07 06:50:57;;;;;;;;;;;12.50;99.90;;;;;;4982748;28;19933;-68
2022/11/07 06:53:24;;;;;;;;;;;12.50;99.90;;;;;;4979403;28;19933;-68
2022/11/07 06:55:51;;;;;;;;;;;12.50;99.90;;;;;;4985089;28;19930;-69
2022/11/07 06:58:18;;;;;;;;;;;12.50;99.90;;;;;;4971984;28;19927;-68
2022/11/07 07:00:44;;;;;;;;;;;12.60;99.90;;;;;;4981352;28;19926;-68
2022/11/07 07:03:12;;;;;;;;;;;12.60;99.90;;;;;;4980203;28;19934;-68
2022/11/07 07:05:39;;;;;;;;;;;12.60;99.90;;;;;;4987475;28;19926;-66
2022/11/07 07:08:07;;;;;;;;;;;12.60;99.90;;;;;;4977088;28;20173;-67
2022/11/07 07:10:39;;;;;;;;;;;12.70;99.90;;;;;;4980793;28;19926;-68
2022/11/07 07:13:05;;;;;;;;;;;12.70;99.90;;;;;;4980662;28;19930;-67
2022/11/07 07:15:33;;;;;;;;;;;12.80;99.90;;;;;;4980200;28;19926;-69
2022/11/07 07:18:00;;;;;;;;;;;12.80;99.90;;;;;;4979116;28;19926;-67
2022/11/07 07:20:27;;;;;;;;;;;12.90;99.90;;;;;;4986897;28;19964;-69
2022/11/07 07:22:54;;;;;;;;;;;13.00;99.90;;;;;;4983090;28;19980;-67
2022/11/07 07:25:22;;;;;;;;;;;12.90;99.90;;;;;;4982815;28;19930;-67
2022/11/07 07:27:49;;;;;;;;;;;12.90;99.90;;;;;;4981388;28;19925;-66
2022/11/07 07:30:16;;;;;;;;;;;12.90;99.90;;;;;;4977265;28;19926;-67
2022/11/07 07:32:43;;;;;;;;;;;13.00;99.90;;;;;;4985842;28;20351;-66
2022/11/07 07:35:09;;;;;;;;;;;13.00;99.90;;;;;;4978549;28;19934;-69
2022/11/07 07:37:36;;;;;;;;;;;13.00;99.90;;;;;;4980104;28;19926;-67
2022/11/07 07:40:03;;;;;;;;;;;13.00;99.90;;;;;;4984011;28;19926;-67
2022/11/07 07:42:31;;;;;;;;;;;13.00;99.90;;;;;;4983127;28;19926;-68
2022/11/07 07:44:58;;;;;;;;;;;13.00;99.90;;;;;;4982265;28;19992;-67
2022/11/07 07:47:25;;;;;;;;;;;13.00;99.90;;;;;;4983482;28;19926;-67
2022/11/07 07:49:52;;;;;;;;;;;13.10;99.90;;;;;;4973581;28;19930;-68
2022/11/07 07:52:19;;;;;;;;;;;13.10;99.90;;;;;;4988115;28;20396;-67
2022/11/07 07:54:46;;;;;;;;;;;13.20;99.90;;;;;;4982053;28;19929;-68
2022/11/07 07:57:12;;;;;;;;;;;13.20;99.90;;;;;;4985212;28;19926;-68
2022/11/07 07:59:41;;;;;;;;;;;13.20;99.90;;;;;;4986211;28;19933;-68
2022/11/07 08:02:09;;;;;;;;;;;13.30;99.90;;;;;;4980436;28;19930;-67
2022/11/07 08:04:36;;;;;;;;;;;13.30;99.90;;;;;;4986642;28;19930;-68
2022/11/07 08:07:03;;;;;;;;;;;13.30;99.90;;;;;;4977653;28;20344;-67
2022/11/07 08:09:35;;;;;;;;;;;13.30;99.90;;;;;;5000053;28;20352;-68
2022/11/07 08:12:02;;;;;;;;;;;13.30;99.90;;;;;;4973811;28;20320;-68
2022/11/07 08:14:29;;;;;;;;;;;13.30;99.90;;;;;;4980813;28;20361;-68
2022/11/07 08:16:57;;;;;;;;;;;13.40;99.90;;;;;;4981535;28;19926;-68
2022/11/07 08:19:25;;;;;;;;;;;13.40;99.90;;;;;;4987082;28;19957;-68
2022/11/07 08:21:51;;;;;;;;;;;13.40;99.90;;;;;;4979340;28;19926;-66
2022/11/07 08:24:18;;;;;;;;;;;13.40;99.90;;;;;;4976987;28;19926;-68
2022/11/07 08:26:45;;;;;;;;;;;13.50;99.90;;;;;;4975731;28;19933;-68
2022/11/07 08:29:12;;;;;;;;;;;13.50;99.90;;;;;;4974798;28;19930;-68
2022/11/07 08:31:39;;;;;;;;;;;13.50;99.90;;;;;;4980109;28;19930;-68
2022/11/07 08:34:07;;;;;;;;;;;13.60;99.90;;;;;;4984374;28;19926;-68
2022/11/07 08:36:34;;;;;;;;;;;13.60;99.90;;;;;;4979333;28;19930;-68
2022/11/07 08:39:00;;;;;;;;;;;13.60;99.90;;;;;;4974184;28;19977;-68
2022/11/07 08:41:27;;;;;;;;;;;13.70;99.90;;;;;;4975871;28;19933;-67
2022/11/07 08:43:54;;;;;;;;;;;13.70;99.90;;;;;;4990437;28;19929;-68
2022/11/07 08:46:21;;;;;;;;;;;13.70;99.90;;;;;;4990929;28;19929;-68
2022/11/07 08:48:48;;;;;;;;;;;13.60;99.90;;;;;;4989068;28;19940;-67
2022/11/07 08:51:16;;;;;;;;;;;13.60;99.90;;;;;;4980963;28;19937;-67
2022/11/07 08:53:43;;;;;;;;;;;13.60;99.90;;;;;;4982517;28;19930;-67
2022/11/07 08:56:10;;;;;;;;;;;13.60;99.90;;;;;;4975470;28;19930;-68
2022/11/07 08:58:37;;;;;;;;;;;13.60;99.90;;;;;;4978440;28;20341;-67
2022/11/07 09:01:06;;;;;;;;;;;13.70;99.90;;;;;;4985543;28;19929;-68
2022/11/07 09:03:34;;;;;;;;;;;13.60;99.90;;;;;;4984928;28;19929;-68
2022/11/07 09:06:01;;;;;;;;;;;13.50;99.90;;;;;;4983809;28;19932;-68
2022/11/07 09:08:29;;;;;;;;;;;13.60;99.90;;;;;;4985268;28;20316;-68
2022/11/07 09:10:56;;;;;;;;;;;13.60;99.90;;;;;;4988232;28;19925;-67
2022/11/07 09:13:22;;;;;;;;;;;13.50;99.90;;;;;;4988245;28;19929;-68
2022/11/07 09:15:49;;;;;;;;;;;13.50;99.90;;;;;;4982370;28;19933;-67
2022/11/07 09:18:16;;;;;;;;;;;13.60;99.90;;;;;;4975574;28;19927;-68
2022/11/07 09:20:43;;;;;;;;;;;13.60;99.90;;;;;;5001817;28;19977;-66
2022/11/07 09:23:10;;;;;;;;;;;13.60;99.90;;;;;;4980289;28;19989;-66
2022/11/07 09:25:38;;;;;;;;;;;13.60;99.90;;;;;;4990960;28;19972;-67
2022/11/07 09:28:05;;;;;;;;;;;13.60;99.90;;;;;;4985004;28;19926;-68
2022/11/07 09:30:32;;;;;;;;;;;13.50;99.90;;;;;;4982435;28;19929;-67
2022/11/07 09:32:59;;;;;;;;;;;13.50;99.90;;;;;;4990052;28;19926;-68
2022/11/07 09:35:26;;;;;;;;;;;13.60;99.90;;;;;;4983353;28;19981;-67
2022/11/07 09:37:53;;;;;;;;;;;13.60;99.90;;;;;;4983178;28;19933;-67
2022/11/07 09:40:39;;;;;;;;;;;13.70;99.90;;;;;;4988242;28;19937;-69
2022/11/07 09:43:15;;;;;;;;;;;13.70;99.90;;;;;;4992139;28;20435;-67
2022/11/07 09:45:50;;;;;;;;;;;13.70;99.90;;;;;;4978978;28;19930;-67
2022/11/07 09:48:19;;;;;;;;;;;13.70;99.90;;;;;;4980523;28;19931;-67
2022/11/07 09:50:48;;;;;;;;;;;13.80;99.90;;;;;;4980947;28;19926;-68
2022/11/07 09:53:17;;;;;;;;;;;13.70;99.90;;;;;;4980115;28;19930;-68
2022/11/07 09:55:48;;;;;;;;;;;13.80;99.90;;;;;;4981384;28;19926;-68
2022/11/07 09:58:19;;;;;;;;;;;13.80;99.90;;;;;;4983594;28;19925;-67
2022/11/07 10:00:46;;;;;;;;;;;13.90;99.90;;;;;;4983018;28;19930;-68
2022/11/07 10:03:13;;;;;;;;;;;13.90;99.90;;;;;;4989345;28;20532;-68
2022/11/07 10:05:43;;;;;;;;;;;14.00;99.90;;;;;;4987857;28;20451;-68
2022/11/07 10:08:14;;;;;;;;;;;14.30;99.90;;;;;;4985574;28;19954;-67
2022/11/07 10:10:43;;;;;;;;;;;14.50;99.90;;;;;;4980167;28;19926;-68
2022/11/07 10:13:28;;;;;;;;;;;14.90;99.90;;;;;;4987926;28;20356;-68
2022/11/07 10:16:03;;;;;;;;;;;15.10;99.90;;;;;;4980560;28;19934;-68
2022/11/07 10:18:37;;;;;;;;;;;14.80;99.90;;;;;;4977616;28;19926;-65
2022/11/07 10:21:07;;;;;;;;;;;14.90;99.90;;;;;;4983243;28;19929;-67
2022/11/07 10:23:44;;;;;;;;;;;15.10;99.90;;;;;;4979244;28;20301;-68
2022/11/07 10:26:11;;;;;;;;;;;15.20;99.90;;;;;;4977661;28;19930;-68
2022/11/07 10:28:43;;;;;;;;;;;14.90;99.90;;;;;;4988884;28;19973;-67
2022/11/07 10:31:12;;;;;;;;;;;14.90;99.90;;;;;;4990126;28;19933;-67
2022/11/07 10:33:42;;;;;;;;;;;14.90;99.90;;;;;;4982186;28;19965;-68
2022/11/07 10:36:14;;;;;;;;;;;15.10;99.90;;;;;;4985661;28;19930;-68
2022/11/07 10:38:42;;;;;;;;;;;15.00;99.90;;;;;;4982272;28;20397;-67
2022/11/07 10:41:13;;;;;;;;;;;15.00;99.90;;;;;;4978154;28;19926;-68
2022/11/07 10:43:41;;;;;;;;;;;15.20;99.90;;;;;;4992454;28;19926;-67
2022/11/07 10:46:15;;;;;;;;;;;15.10;99.90;;;;;;4978607;28;19929;-68
2022/11/07 10:48:50;;;;;;;;;;;16.00;99.90;;;;;;4980909;28;19972;-68
2022/11/07 10:51:16;;;;;;;;;;;16.10;99.90;;;;;;4984872;28;19933;-67
2022/11/07 10:53:44;;;;;;;;;;;16.10;99.90;;;;;;4975342;28;19985;-68
2022/11/07 10:56:12;;;;;;;;;;;16.70;99.90;;;;;;4989360;28;19957;-68
2022/11/07 10:58:43;;;;;;;;;;;19.70;99.90;;;;;;4982992;28;19930;-68
2022/11/07 11:01:10;;;;;;;;;;;20.00;99.90;;;;;;4989498;28;19929;-68
2022/11/07 11:03:41;;;;;;;;;;;20.90;99.90;;;;;;4975699;28;19926;-68
2022/11/07 11:06:12;;;;;;;;;;;21.80;99.90;;;;;;4978502;28;19926;-68
2022/11/07 11:08:39;;;;;;;;;;;22.20;99.90;;;;;;4983642;28;19926;-68
2022/11/07 11:11:16;;;;;;;;;;;22.10;99.90;;;;;;4980461;28;19930;-68
2022/11/07 11:13:43;;;;;;;;;;;22.10;99.90;;;;;;4987974;28;19926;-69
2022/11/07 11:16:20;;;;;;;;;;;24.80;99.90;;;;;;4977862;28;19925;-69
2022/11/07 11:18:50;;;;;;;;;;;24.50;99.90;;;;;;4976204;28;20660;-69
2022/11/07 11:21:17;;;;;;;;;;;24.30;99.90;;;;;;4982588;28;19926;-68
2022/11/07 11:23:45;;;;;;;;;;;22.20;99.90;;;;;;4980826;28;19981;-67
2022/11/07 11:26:15;;;;;;;;;;;20.40;99.90;;;;;;4983316;28;19934;-68
2022/11/07 11:28:43;;;;;;;;;;;20.60;99.90;;;;;;4986289;28;19930;-68
2022/11/07 11:31:12;;;;;;;;;;;20.20;99.90;;;;;;4982965;28;19926;-67
2022/11/07 11:33:42;;;;;;;;;;;19.80;99.90;;;;;;4984797;28;19962;-66
2022/11/07 11:36:14;;;;;;;;;;;19.60;99.90;;;;;;4982975;28;20033;-68
2022/11/07 11:38:41;;;;;;;;;;;18.80;99.90;;;;;;4980171;28;19934;-68
2022/11/07 11:41:13;;;;;;;;;;;17.30;99.90;;;;;;4982818;28;19926;-68
2022/11/07 11:43:42;;;;;;;;;;;16.50;99.90;;;;;;4979596;28;19934;-68
2022/11/07 11:46:11;;;;;;;;;;;16.10;99.90;;;;;;4976736;28;19930;-67
2022/11/07 11:48:40;;;;;;;;;;;15.90;99.90;;;;;;4980006;28;20380;-68
2022/11/07 11:51:10;;;;;;;;;;;15.90;99.90;;;;;;4984473;28;19925;-68
2022/11/07 11:53:38;;;;;;;;;;;15.90;99.90;;;;;;4981689;28;19945;-68
2022/11/07 11:56:17;;;;;;;;;;;16.70;99.90;;;;;;4980637;28;20000;-68
2022/11/07 11:58:48;;;;;;;;;;;16.90;99.90;;;;;;4980645;28;19968;-67
2022/11/07 12:01:21;;;;;;;;;;;16.80;99.90;;;;;;4980969;28;19930;-67
2022/11/07 12:04:10;;;;;;;;;;;17.00;99.90;;;;;;4982130;28;19930;-67
2022/11/07 12:06:38;;;;;;;;;;;17.60;99.90;;;;;;4988801;28;19980;-67
2022/11/07 12:09:31;;;;;;;;;;;17.00;99.90;;;;;;4983006;28;20206;-68
2022/11/07 12:12:04;;;;;;;;;;;16.70;99.90;;;;;;4959659;28;19925;-67
2022/11/07 12:14:37;;;;;;;;;;;16.40;99.90;;;;;;4980964;28;19934;-67
2022/11/07 12:17:06;;;;;;;;;;;15.90;99.90;;;;;;4993851;28;19926;-67
2022/11/07 12:19:38;;;;;;;;;;;15.90;99.90;;;;;;4982602;28;19972;-67
2022/11/07 12:22:07;;;;;;;;;;;15.80;99.90;;;;;;4988279;28;20315;-68
2022/11/07 12:24:38;;;;;;;;;;;16.20;99.90;;;;;;4987595;28;20312;-67
2022/11/07 12:27:11;;;;;;;;;;;16.30;99.90;;;;;;4991708;28;19926;-67
2022/11/07 12:29:46;;;;;;;;;;;16.30;99.90;;;;;;4984299;28;19980;-68
2022/11/07 12:32:17;;;;;;;;;;;16.90;99.90;;;;;;4982395;28;19985;-67
2022/11/07 12:34:54;;;;;;;;;;;17.80;99.90;;;;;;4992252;28;19926;-68
2022/11/07 12:37:30;;;;;;;;;;;17.90;99.90;;;;;;4984335;28;19926;-67
2022/11/07 12:40:03;;;;;;;;;;;17.80;99.90;;;;;;5003824;28;19930;-69
2022/11/07 12:42:36;;;;;;;;;;;17.50;99.90;;;;;;4980843;28;19926;-67
2022/11/07 12:45:09;;;;;;;;;;;17.60;99.90;;;;;;4984443;28;19930;-68
2022/11/07 12:47:57;;;;;;;;;;;17.70;99.90;;;;;;4978365;28;19930;-68
2022/11/07 12:50:30;;;;;;;;;;;17.50;99.90;;;;;;4996848;28;19925;-67
2022/11/07 12:53:02;;;;;;;;;;;17.90;99.90;;;;;;4986043;28;19976;-68
2022/11/07 12:55:31;;;;;;;;;;;19.00;99.90;;;;;;4991133;28;20356;-68
2022/11/07 12:58:01;;;;;;;;;;;18.90;99.90;;;;;;4974525;28;19930;-65
2022/11/07 13:00:28;;;;;;;;;;;19.70;99.90;;;;;;4976750;28;19952;-68
2022/11/07 13:03:04;;;;;;;;;;;19.40;99.90;;;;;;4984500;28;19926;-67
2022/11/07 13:05:37;;;;;;;;;;;18.10;99.90;;;;;;4985068;28;19970;-68
2022/11/07 13:08:08;;;;;;;;;;;17.70;99.90;;;;;;4998541;28;19933;-68
2022/11/07 13:10:39;;;;;;;;;;;17.30;99.90;;;;;;4983866;28;19925;-69
2022/11/07 13:13:10;;;;;;;;;;;16.70;99.90;;;;;;4982707;28;19952;-67
2022/11/07 13:15:38;;;;;;;;;;;16.90;99.90;;;;;;4975750;28;19926;-68
2022/11/07 13:18:13;;;;;;;;;;;16.70;99.90;;;;;;4976377;28;19940;-68
2022/11/07 13:20:40;;;;;;;;;;;16.50;99.90;;;;;;4982448;28;19967;-67
2022/11/07 13:23:14;;;;;;;;;;;16.40;99.90;;;;;;4975760;28;19937;-68
2022/11/07 13:25:40;;;;;;;;;;;16.30;99.90;;;;;;4990160;28;19926;-67
2022/11/07 13:28:22;;;;;;;;;;;16.00;99.90;;;;;;4977452;28;19933;-67
2022/11/07 13:30:55;;;;;;;;;;;15.80;99.90;;;;;;4986222;28;19932;-68
2022/11/07 13:33:27;;;;;;;;;;;15.70;99.90;;;;;;4991074;28;19972;-67
2022/11/07 13:35:54;;;;;;;;;;;15.60;99.90;;;;;;4991404;28;19949;-68
2022/11/07 13:38:23;;;;;;;;;;;15.60;99.90;;;;;;4986445;28;19926;-67
2022/11/07 13:40:51;;;;;;;;;;;15.50;99.90;;;;;;4976681;28;20301;-67
2022/11/07 13:43:19;;;;;;;;;;;15.60;99.90;;;;;;4992137;28;19926;-67
2022/11/07 13:45:48;;;;;;;;;;;15.60;99.90;;;;;;4982582;28;19927;-67
2022/11/07 13:48:18;;;;;;;;;;;15.60;99.90;;;;;;4979203;28;19976;-68
2022/11/07 13:50:49;;;;;;;;;;;15.70;99.90;;;;;;4986329;28;19955;-67
2022/11/07 13:53:19;;;;;;;;;;;15.70;99.90;;;;;;4979349;28;19926;-68
2022/11/07 13:55:48;;;;;;;;;;;15.70;99.90;;;;;;4982302;28;19985;-66
2022/11/07 13:58:16;;;;;;;;;;;16.00;99.90;;;;;;4983383;28;19929;-68
2022/11/07 14:00:43;;;;;;;;;;;16.40;99.90;;;;;;4985576;28;19926;-68
2022/11/07 14:03:23;;;;;;;;;;;16.50;99.90;;;;;;4978701;28;20321;-67
2022/11/07 14:05:50;;;;;;;;;;;16.40;99.90;;;;;;4989995;28;20025;-68
2022/11/07 14:08:20;;;;;;;;;;;16.30;99.90;;;;;;4982603;28;19926;-68
2022/11/07 14:10:47;;;;;;;;;;;16.10;99.90;;;;;;4982370;28;19938;-68
2022/11/07 14:13:22;;;;;;;;;;;15.80;99.90;;;;;;4983710;28;19929;-67
2022/11/07 14:15:51;;;;;;;;;;;15.70;99.90;;;;;;4984566;28;19926;-68
2022/11/07 14:18:18;;;;;;;;;;;15.80;99.90;;;;;;4989852;28;19929;-68
2022/11/07 14:20:47;;;;;;;;;;;15.80;99.90;;;;;;4987421;28;19937;-68
2022/11/07 14:23:15;;;;;;;;;;;15.70;99.90;;;;;;4983857;28;19930;-68
2022/11/07 14:25:42;;;;;;;;;;;15.90;99.90;;;;;;4982174;28;19926;-68
2022/11/07 14:28:14;;;;;;;;;;;16.00;99.90;;;;;;4979728;28;19929;-68
2022/11/07 14:30:42;;;;;;;;;;;16.30;99.90;;;;;;4975402;28;20340;-67
2022/11/07 14:33:15;;;;;;;;;;;17.00;99.90;;;;;;4978696;28;20447;-67
2022/11/07 14:35:44;;;;;;;;;;;17.90;99.90;;;;;;4977056;28;19926;-68
2022/11/07 14:38:16;;;;;;;;;;;18.60;99.90;;;;;;4984813;28;19926;-68
2022/11/07 14:40:43;;;;;;;;;;;18.80;99.90;;;;;;4985961;28;20338;-67
2022/11/07 14:43:11;;;;;;;;;;;19.00;99.90;;;;;;4979160;28;19930;-68
2022/11/07 14:45:40;;;;;;;;;;;18.60;99.90;;;;;;4984403;28;19938;-67
2022/11/07 14:48:07;;;;;;;;;;;18.70;99.90;;;;;;4984865;28;19926;-71
2022/11/07 14:50:34;;;;;;;;;;;18.90;99.90;;;;;;4988647;28;19932;-72
2022/11/07 14:53:05;;;;;;;;;;;19.00;99.90;;;;;;4982465;28;20332;-72
2022/11/07 14:55:34;;;;;;;;;;;19.20;99.90;;;;;;4987008;28;19925;-71
2022/11/07 14:58:02;;;;;;;;;;;19.60;99.90;;;;;;4977238;28;19940;-71
2022/11/07 15:00:28;;;;;;;;;;;18.90;99.90;;;;;;4985882;28;20397;-71
2022/11/07 15:02:56;;;;;;;;;;;18.40;99.90;;;;;;4974949;28;19926;-71
2022/11/07 15:05:25;;;;;;;;;;;17.90;99.90;;;;;;4982742;28;19929;-72
2022/11/07 15:07:52;;;;;;;;;;;17.40;99.90;;;;;;4979941;28;20401;-72
2022/11/07 15:10:30;;;;;;;;;;;17.00;99.90;;;;;;4977220;28;20348;-72
2022/11/07 15:12:59;;;;;;;;;;;16.80;99.90;;;;;;4985159;28;19956;-72
2022/11/07 15:15:28;;;;;;;;;;;16.60;99.90;;;;;;4990066;28;19926;-68
2022/11/07 15:17:56;;;;;;;;;;;16.30;99.90;;;;;;4985973;28;19930;-72
2022/11/07 15:20:32;;;;;;;;;;;16.20;99.90;;;;;;4977361;28;19926;-71
2022/11/07 15:22:59;;;;;;;;;;;16.00;99.90;;;;;;4980026;28;19926;-72
2022/11/07 15:25:27;;;;;;;;;;;16.00;99.90;;;;;;4976935;28;19926;-72
2022/11/07 15:27:54;;;;;;;;;;;15.90;99.90;;;;;;5001209;28;19965;-72
2022/11/07 15:30:27;;;;;;;;;;;15.70;99.90;;;;;;4989294;28;19932;-72
2022/11/07 15:32:53;;;;;;;;;;;15.60;99.90;;;;;;4999407;28;19926;-71
2022/11/07 15:35:21;;;;;;;;;;;15.50;99.90;;;;;;4981291;28;19926;-73
2022/11/07 15:37:51;;;;;;;;;;;15.40;99.90;;;;;;4988257;28;19937;-71
2022/11/07 15:40:20;;;;;;;;;;;15.40;99.90;;;;;;4984019;28;19926;-72
2022/11/07 15:42:46;;;;;;;;;;;15.50;99.90;;;;;;4980731;28;19930;-72
2022/11/07 15:45:13;;;;;;;;;;;15.50;99.90;;;;;;4982872;28;19934;-69
2022/11/07 15:47:42;;;;;;;;;;;15.20;99.90;;;;;;4986722;28;19926;-71
2022/11/07 15:50:14;;;;;;;;;;;15.10;99.90;;;;;;4980789;28;19934;-72
2022/11/07 15:52:41;;;;;;;;;;;15.00;99.90;;;;;;4984682;28;19934;-71
2022/11/07 15:55:11;;;;;;;;;;;15.00;99.90;;;;;;4984048;28;19926;-71
2022/11/07 15:57:38;;;;;;;;;;;14.90;99.90;;;;;;4979626;28;19926;-70
2022/11/07 16:00:05;;;;;;;;;;;14.80;99.90;;;;;;4990646;28;19930;-71
2022/11/07 16:02:38;;;;;;;;;;;14.80;99.90;;;;;;5004359;23;19980;-71
2022/11/07 16:05:06;;;;;;;;;;;14.70;99.90;;;;;;4991948;28;20363;-71
2022/11/07 16:07:33;;;;;;;;;;;14.70;99.90;;;;;;4990386;28;20405;-71
2022/11/07 16:10:00;;;;;;;;;;;14.60;99.90;;;;;;4987107;28;19929;-71
2022/11/07 16:12:26;;;;;;;;;;;14.60;99.90;;;;;;4978073;28;19981;-71
2022/11/07 16:14:54;;;;;;;;;;;14.60;99.90;;;;;;4959723;28;20325;-72
2022/11/07 16:17:21;;;;;;;;;;;14.60;99.90;;;;;;4964342;28;19926;-73
2022/11/07 16:19:48;;;;;;;;;;;14.50;99.90;;;;;;4976231;28;19926;-72
2022/11/07 16:22:16;;;;;;;;;;;14.50;99.90;;;;;;4967083;28;20298;-73
2022/11/07 16:24:43;;;;;;;;;;;14.50;99.90;;;;;;4977560;28;19934;-72
2022/11/07 16:27:13;;;;;;;;;;;14.60;99.90;;;;;;4978895;28;19926;-73
2022/11/07 16:29:40;;;;;;;;;;;14.50;99.90;;;;;;4977684;28;20389;-72
2022/11/07 16:32:08;;;;;;;;;;;14.50;99.90;;;;;;4986263;28;19933;-72
2022/11/07 16:34:35;;;;;;;;;;;14.40;99.90;;;;;;4978313;28;19930;-71
2022/11/07 16:37:02;;;;;;;;;;;14.40;99.90;;;;;;4978254;28;19933;-71
2022/11/07 16:39:31;;;;;;;;;;;14.40;99.90;;;;;;4973275;28;19926;-72
2022/11/07 16:41:57;;;;;;;;;;;14.40;99.90;;;;;;4967098;28;19933;-75
2022/11/07 16:44:24;;;;;;;;;;;14.40;99.90;;;;;;4968608;28;19930;-72
2022/11/07 16:46:51;;;;;;;;;;;14.30;99.90;;;;;;4969879;28;20285;-72
2022/11/07 16:49:21;;;;;;;;;;;14.30;99.90;;;;;;4983238;28;19949;-72
2022/11/07 16:51:48;;;;;;;;;;;14.30;99.90;;;;;;4973067;28;19926;-72
2022/11/07 16:54:14;;;;;;;;;;;14.30;99.90;;;;;;4979942;28;19926;-72
2022/11/07 16:56:46;;;;;;;;;;;14.40;99.90;;;;;;4985452;28;19926;-72
2022/11/07 16:59:16;;;;;;;;;;;14.30;99.90;;;;;;4967461;28;19930;-71
2022/11/07 17:01:43;;;;;;;;;;;14.30;99.90;;;;;;4975933;28;19934;-71
2022/11/07 17:04:10;;;;;;;;;;;14.30;99.90;;;;;;4971645;28;19934;-72
2022/11/07 17:06:37;;;;;;;;;;;14.30;99.90;;;;;;4969676;28;19933;-71
2022/11/07 17:09:04;;;;;;;;;;;14.20;99.90;;;;;;4979771;28;19926;-72
2022/11/07 17:11:31;;;;;;;;;;;14.20;99.90;;;;;;4966873;28;20305;-72
2022/11/07 17:13:59;;;;;;;;;;;14.30;99.90;;;;;;4974638;28;19926;-66
2022/11/07 17:16:28;;;;;;;;;;;14.20;99.90;;;;;;4965520;28;19926;-71
2022/11/07 17:18:55;;;;;;;;;;;14.20;99.90;;;;;;4968354;28;20013;-69
2022/11/07 17:21:24;;;;;;;;;;;14.20;99.90;;;;;;4971112;28;19978;-69
2022/11/07 17:23:51;;;;;;;;;;;14.30;99.90;;;;;;4976610;28;19926;-70
2022/11/07 17:26:19;;;;;;;;;;;14.20;99.90;;;;;;4967582;28;19981;-70
2022/11/07 17:28:46;;;;;;;;;;;14.20;99.90;;;;;;4966472;28;20025;-70
2022/11/07 17:31:14;;;;;;;;;;;14.20;99.90;;;;;;4971954;28;19933;-70
2022/11/07 17:33:41;;;;;;;;;;;14.30;99.90;;;;;;4966104;28;20413;-68
2022/11/07 17:36:18;;;;;;;;;;;14.30;99.90;;;;;;4972750;28;19937;-69
2022/11/07 17:38:45;;;;;;;;;;;14.30;99.90;;;;;;4959652;28;19933;-69
2022/11/07 17:41:17;;;;;;;;;;;14.30;99.90;;;;;;4967322;28;20329;-70
2022/11/07 17:43:43;;;;;;;;;;;14.30;99.90;;;;;;4979623;28;20025;-71
2022/11/07 17:46:12;;;;;;;;;;;14.20;99.90;;;;;;4973016;28;20389;-69
2022/11/07 17:48:40;;;;;;;;;;;14.20;99.90;;;;;;4972922;28;20413;-69
2022/11/07 17:51:07;;;;;;;;;;;14.20;99.90;;;;;;4971180;28;19926;-70
2022/11/07 17:53:34;;;;;;;;;;;14.20;99.90;;;;;;4972551;28;19926;-70
2022/11/07 17:56:00;;;;;;;;;;;14.30;99.90;;;;;;4967697;28;19925;-70
2022/11/07 17:58:27;;;;;;;;;;;14.30;99.90;;;;;;4973849;28;19926;-69
2022/11/07 18:00:54;;;;;;;;;;;14.30;99.90;;;;;;4980587;28;19993;-70
2022/11/07 18:03:21;;;;;;;;;;;14.40;99.90;;;;;;4968341;28;19977;-70
2022/11/07 18:05:49;;;;;;;;;;;14.40;99.90;;;;;;4973717;28;20353;-72
2022/11/07 18:08:16;;;;;;;;;;;14.50;99.90;;;;;;4966785;28;20416;-75
2022/11/07 18:10:42;;;;;;;;;;;14.50;99.90;;;;;;4956512;28;19926;-69
2022/11/07 18:13:09;;;;;;;;;;;14.50;99.90;;;;;;4978963;28;19926;-70
2022/11/07 18:15:37;;;;;;;;;;;14.50;99.90;;;;;;4966227;28;19931;-70
2022/11/07 18:18:06;;;;;;;;;;;14.50;99.90;;;;;;4969669;28;20322;-68
2022/11/07 18:20:32;;;;;;;;;;;14.50;99.90;;;;;;4974650;28;19925;-70
2022/11/07 18:23:01;;;;;;;;;;;14.40;99.90;;;;;;4964259;28;19935;-69
2022/11/07 18:25:29;;;;;;;;;;;14.30;99.90;;;;;;4964256;28;19926;-70
2022/11/07 18:27:56;;;;;;;;;;;14.30;99.90;;;;;;4965420;28;19940;-70
2022/11/07 18:30:23;;;;;;;;;;;14.20;99.90;;;;;;4975988;28;19992;-70
2022/11/07 18:32:50;;;;;;;;;;;14.20;99.90;;;;;;4967776;28;19927;-70
2022/11/07 18:35:17;;;;;;;;;;;14.10;99.90;;;;;;4979047;28;19930;-70
2022/11/07 18:37:43;;;;;;;;;;;14.10;99.90;;;;;;4971165;28;19926;-71